createdAt,value
2019-04-16T00:02:44.194Z,88.50
2019-04-16T00:05:37.322Z,83.60
2019-04-16T00:08:26.628Z,81.47
2019-04-16T00:10:49.943Z,80.93
2019-04-16T00:13:45.214Z,80.67
2019-04-16T00:16:15.719Z,86.33
2019-04-16T00:18:56.614Z,74.87
2019-04-16T00:21:38.408Z,73.30
2019-04-16T00:24:22.823Z,83.53
2019-04-16T00:26:57.839Z,86.83
2019-04-16T00:29:32.682Z,81.43
2019-04-16T00:32:09.071Z,72.97
2019-04-16T00:34:38.735Z,79.80
2019-04-16T00:37:09.843Z,91.47
2019-04-16T00:39:40.384Z,81.20
2019-04-16T00:42:11.109Z,85.27
2019-04-16T00:44:41.619Z,90.23
2019-04-16T00:47:12.206Z,103.30
2019-04-16T00:49:43.014Z,96.90
2019-04-16T00:52:13.625Z,87.27
2019-04-16T00:54:44.087Z,96.77
2019-04-16T00:57:17.631Z,96.43
2019-04-16T00:59:47.127Z,91.80
2019-04-16T01:02:17.819Z,103.60
2019-04-16T01:04:48.271Z,112.03
2019-04-16T01:07:18.832Z,97.60
2019-04-16T01:09:49.626Z,94.93
2019-04-16T01:12:20.437Z,102.47
2019-04-16T01:14:51.130Z,114.03
2019-04-16T01:17:21.725Z,84.40
2019-04-16T01:19:52.336Z,95.90
2019-04-16T01:22:22.861Z,90.20
2019-04-16T01:24:54.274Z,97.43
2019-04-16T01:27:32.604Z,93.20
2019-04-16T01:30:06.166Z,98.27
2019-04-16T01:32:55.176Z,94.00
2019-04-16T01:36:01.316Z,99.27
2019-04-16T01:38:40.626Z,97.93
2019-04-16T01:41:15.927Z,98.80
2019-04-16T01:43:46.505Z,85.43
2019-04-16T01:46:17.229Z,101.67
2019-04-16T01:48:48.091Z,104.80
2019-04-16T01:51:18.771Z,94.97
2019-04-16T01:53:52.354Z,94.47
2019-04-16T01:56:22.377Z,108.83
2019-04-16T01:58:53.216Z,109.73
2019-04-16T02:01:23.930Z,114.23
2019-04-16T02:03:54.585Z,99.80
2019-04-16T02:06:25.922Z,99.57
2019-04-16T02:09:01.772Z,100.50
2019-04-16T02:11:29.717Z,91.07
2019-04-16T02:14:00.730Z,102.73
2019-04-16T02:16:33.242Z,95.97
2019-04-16T02:19:04.102Z,96.37
2019-04-16T02:21:34.951Z,91.90
2019-04-16T02:24:05.643Z,91.20
2019-04-16T02:26:36.583Z,89.00
2019-04-16T02:29:07.335Z,85.70
2019-04-16T02:31:38.011Z,79.67
2019-04-16T02:34:08.812Z,91.93
2019-04-16T02:36:39.346Z,92.57
2019-04-16T02:39:10.123Z,80.30
2019-04-16T02:41:40.962Z,82.53
2019-04-16T02:44:16.454Z,92.83
2019-04-16T02:46:44.303Z,99.33
2019-04-16T02:49:14.879Z,96.37
2019-04-16T02:52:04.279Z,94.07
2019-04-16T02:54:45.514Z,99.73
2019-04-16T02:57:38.134Z,86.17
2019-04-16T03:00:22.950Z,90.97
2019-04-16T03:02:59.418Z,106.23
2019-04-16T03:05:36.356Z,105.60
2019-04-16T03:08:07.438Z,104.03
2019-04-16T03:10:38.386Z,110.70
2019-04-16T03:13:09.659Z,107.37
2019-04-16T03:16:08.773Z,111.43
2019-04-16T03:18:48.302Z,101.13
2019-04-16T03:21:20.487Z,99.87
2019-04-16T03:23:51.073Z,105.50
2019-04-16T03:26:22.153Z,93.13
2019-04-16T03:28:55.685Z,90.40
2019-04-16T03:31:26.137Z,90.93
2019-04-16T03:33:56.631Z,83.87
2019-04-16T03:36:29.563Z,91.03
2019-04-16T03:39:00.683Z,82.67
2019-04-16T03:41:32.902Z,90.17
2019-04-16T03:44:04.209Z,92.30
2019-04-16T03:46:36.089Z,79.97
2019-04-16T03:49:06.710Z,75.63
2019-04-16T03:51:37.532Z,76.27
2019-04-16T03:54:08.363Z,62.97
2019-04-16T03:56:39.099Z,70.83
2019-04-16T03:59:11.594Z,75.40
2019-04-16T04:01:45.558Z,80.50
2019-04-16T04:04:14.982Z,61.47
2019-04-16T04:06:45.651Z,70.60
2019-04-16T04:09:18.958Z,68.83
2019-04-16T04:11:48.883Z,68.03
2019-04-16T04:14:23.333Z,72.60
2019-04-16T04:16:52.320Z,62.83
2019-04-16T04:19:23.132Z,84.50
2019-04-16T04:21:54.478Z,69.67
2019-04-16T04:24:28.495Z,73.17
2019-04-16T04:26:59.204Z,69.20
2019-04-16T04:29:30.268Z,71.87
2019-04-16T04:32:03.453Z,81.10
2019-04-16T04:34:33.532Z,67.80
2019-04-16T04:37:04.672Z,74.30
2019-04-16T04:39:35.471Z,64.83
2019-04-16T04:42:06.249Z,69.23
2019-04-16T04:44:37.321Z,66.07
2019-04-16T04:47:08.097Z,64.40
2019-04-16T04:49:39.253Z,60.97
2019-04-16T04:52:13.605Z,58.43
2019-04-16T04:54:42.605Z,57.47
2019-04-16T04:57:13.755Z,58.67
2019-04-16T04:59:44.699Z,52.50
2019-04-16T05:02:15.490Z,52.33
2019-04-16T05:05:04.398Z,58.37
2019-04-16T05:07:35.295Z,55.97
2019-04-16T05:10:07.457Z,51.93
2019-04-16T05:12:39.093Z,57.73
2019-04-16T05:15:11.526Z,58.57
2019-04-16T05:17:42.539Z,62.23
2019-04-16T05:20:16.280Z,51.83
2019-04-16T05:22:47.379Z,53.97
2019-04-16T05:25:18.536Z,50.77
2019-04-16T05:27:49.812Z,49.60
2019-04-16T05:30:21.774Z,47.80
2019-04-16T05:32:52.635Z,51.33
2019-04-16T05:35:23.802Z,50.40
2019-04-16T05:37:54.790Z,60.17
2019-04-16T05:40:27.626Z,53.43
2019-04-16T05:43:01.310Z,51.80
2019-04-16T05:45:34.411Z,51.67
2019-04-16T05:48:05.490Z,50.20
2019-04-16T05:50:36.568Z,51.83
2019-04-16T05:53:08.374Z,55.43
2019-04-16T05:55:57.408Z,51.77
2019-04-16T05:58:27.773Z,55.67
2019-04-16T06:01:14.392Z,57.63
2019-04-16T06:03:45.150Z,55.63
2019-04-16T06:06:15.773Z,55.03
2019-04-16T06:08:46.452Z,50.90
2019-04-16T06:11:28.116Z,51.47
2019-04-16T06:14:17.024Z,48.50
2019-04-16T06:17:15.784Z,54.97
2019-04-16T06:20:20.539Z,54.63
2019-04-16T06:23:15.081Z,56.80
2019-04-16T06:25:49.453Z,55.40
2019-04-16T06:28:44.969Z,53.50
2019-04-16T06:31:39.393Z,54.00
2019-04-16T06:34:36.061Z,52.63
2019-04-16T06:37:28.079Z,52.13
2019-04-16T06:40:18.139Z,50.23
2019-04-16T06:42:54.844Z,48.70
2019-04-16T06:45:39.650Z,49.93
2019-04-16T06:48:13.813Z,42.43
2019-04-16T06:51:02.136Z,50.10
2019-04-16T06:53:53.976Z,55.43
2019-04-16T06:56:45.461Z,46.73
2019-04-16T06:59:30.935Z,42.70
2019-04-16T07:02:19.422Z,42.20
2019-04-16T07:05:08.984Z,36.47
2019-04-16T07:07:47.028Z,45.63
2019-04-16T07:10:20.190Z,45.67
2019-04-16T07:12:52.499Z,43.50
2019-04-16T07:15:28.154Z,41.03
2019-04-16T07:17:56.215Z,50.77
2019-04-16T07:20:26.776Z,37.53
2019-04-16T07:22:57.652Z,44.23
2019-04-16T07:25:29.580Z,49.73
2019-04-16T07:28:12.241Z,43.83
2019-04-16T07:31:10.740Z,45.83
2019-04-16T07:34:02.238Z,43.07
2019-04-16T07:36:36.484Z,41.10
2019-04-16T07:39:42.720Z,39.07
2019-04-16T07:42:26.334Z,35.43
2019-04-16T07:45:13.180Z,38.67
2019-04-16T07:48:06.126Z,38.23
2019-04-16T07:50:53.062Z,41.23
2019-04-16T07:53:53.561Z,38.23
2019-04-16T07:56:25.953Z,37.23
2019-04-16T07:59:00.163Z,39.90
2019-04-16T08:01:28.974Z,30.73
2019-04-16T08:04:01.384Z,29.53
2019-04-16T08:06:32.566Z,27.23
2019-04-16T08:09:03.607Z,26.73
2019-04-16T08:11:35.472Z,24.77
2019-04-16T08:14:09.796Z,25.13
2019-04-16T08:16:47.102Z,21.93
2019-04-16T08:19:12.276Z,27.37
2019-04-16T08:21:44.284Z,19.60
2019-04-16T08:24:24.396Z,16.93
2019-04-16T08:26:52.684Z,18.10
2019-04-16T08:29:26.343Z,24.97
2019-04-16T08:31:55.835Z,15.50
2019-04-16T08:34:26.561Z,16.37
2019-04-16T08:36:57.426Z,15.37
2019-04-16T08:39:28.106Z,16.60
2019-04-16T08:41:58.847Z,11.03
2019-04-16T08:44:29.569Z,7.53
2019-04-16T08:47:00.085Z,8.60
2019-04-16T08:49:30.929Z,9.77
2019-04-16T08:52:01.870Z,7.47
2019-04-16T08:54:32.471Z,7.80
2019-04-16T08:57:03.315Z,14.93
2019-04-16T08:59:34.325Z,8.23
2019-04-16T09:02:05.012Z,9.30
2019-04-16T09:04:35.522Z,8.50
2019-04-16T09:07:12.066Z,9.13
2019-04-16T09:09:50.373Z,8.60
2019-04-16T09:12:20.977Z,6.57
2019-04-16T09:14:55.948Z,17.83
2019-04-16T09:17:31.983Z,9.93
2019-04-16T09:20:08.269Z,12.90
2019-04-16T09:22:48.731Z,11.37
2019-04-16T09:25:46.692Z,8.47
2019-04-16T09:28:36.900Z,13.07
2019-04-16T09:31:28.495Z,13.30
2019-04-16T09:34:15.725Z,15.58
2019-04-16T09:37:08.366Z,13.63
2019-04-16T09:39:56.648Z,16.30
2019-04-16T09:42:27.135Z,17.23
2019-04-16T09:44:57.856Z,21.73
2019-04-16T09:47:28.940Z,13.43
2019-04-16T09:50:01.019Z,14.90
2019-04-16T09:52:31.815Z,12.50
2019-04-16T09:55:03.033Z,11.43
2019-04-16T09:57:33.537Z,13.93
2019-04-16T10:00:08.405Z,15.33
2019-04-16T10:02:40.953Z,9.97
2019-04-16T10:05:12.030Z,8.77
2019-04-16T10:07:42.650Z,8.43
2019-04-16T10:10:13.450Z,15.13
2019-04-16T10:12:46.763Z,8.17
2019-04-16T10:15:17.624Z,11.80
2019-04-16T10:17:48.463Z,13.43
2019-04-16T10:20:19.341Z,11.93
2019-04-16T10:22:49.881Z,11.87
2019-04-16T10:25:20.444Z,8.37
2019-04-16T10:28:12.958Z,10.97
2019-04-16T10:30:54.123Z,9.03
2019-04-16T10:33:24.807Z,15.17
2019-04-16T10:35:57.469Z,10.27
2019-04-16T10:38:47.200Z,7.93
2019-04-16T10:41:38.340Z,15.47
2019-04-16T10:44:16.717Z,11.37
2019-04-16T10:47:19.732Z,13.50
2019-04-16T10:50:17.302Z,15.37
2019-04-16T10:53:07.172Z,11.00
2019-04-16T10:55:55.929Z,7.37
2019-04-16T10:58:44.872Z,12.53
2019-04-16T11:01:32.947Z,13.80
2019-04-16T11:04:28.024Z,10.37
2019-04-16T11:07:03.125Z,6.30
2019-04-16T11:09:33.748Z,14.07
2019-04-16T11:12:05.277Z,10.57
2019-04-16T11:14:36.554Z,9.40
2019-04-16T11:17:07.643Z,12.10
2019-04-16T11:19:38.510Z,5.13
2019-04-16T11:22:09.552Z,6.30
2019-04-16T11:24:40.649Z,10.97
2019-04-16T11:27:11.533Z,12.67
2019-04-16T11:29:42.742Z,11.20
2019-04-16T11:32:15.651Z,14.50
2019-04-16T11:34:46.964Z,12.23
2019-04-16T11:37:17.464Z,10.67
2019-04-16T11:39:48.549Z,6.70
2019-04-16T11:42:19.037Z,7.90
2019-04-16T11:44:51.037Z,8.83
2019-04-16T11:47:21.563Z,6.57
2019-04-16T11:49:52.199Z,11.30
2019-04-16T11:52:23.056Z,11.10
2019-04-16T11:54:53.810Z,9.63
2019-04-16T11:57:24.397Z,9.70
2019-04-16T12:00:06.409Z,14.03
2019-04-16T12:02:38.899Z,8.47
2019-04-16T12:05:37.679Z,12.43
2019-04-16T12:08:22.862Z,7.37
2019-04-16T12:11:12.711Z,12.23
2019-04-16T12:14:08.809Z,8.33
2019-04-16T12:16:46.023Z,7.93
2019-04-16T12:19:34.563Z,6.57
2019-04-16T12:22:10.637Z,6.03
2019-04-16T12:25:03.197Z,11.13
2019-04-16T12:27:51.875Z,12.70
2019-04-16T12:30:52.098Z,11.80
2019-04-16T12:33:41.703Z,10.33
2019-04-16T12:36:29.818Z,8.17
2019-04-16T12:39:18.385Z,10.13
2019-04-16T12:42:05.103Z,8.07
2019-04-16T12:44:53.626Z,16.60
2019-04-16T12:47:41.136Z,4.43
2019-04-16T12:50:34.743Z,7.90
2019-04-16T12:53:27.617Z,6.23
2019-04-16T12:56:40.145Z,7.53
2019-04-16T12:59:35.351Z,8.30
2019-04-16T13:02:30.856Z,5.47
2019-04-16T13:05:10.932Z,4.93
2019-04-16T13:08:07.821Z,6.30
2019-04-16T13:10:54.906Z,7.47
2019-04-16T13:13:56.302Z,5.00
2019-04-16T13:16:39.071Z,7.93
2019-04-16T13:19:27.352Z,6.43
2019-04-16T13:22:00.081Z,8.77
2019-04-16T13:24:44.532Z,5.40
2019-04-16T13:27:20.777Z,7.00
2019-04-16T13:29:51.389Z,6.30
2019-04-16T13:32:21.974Z,5.73
2019-04-16T13:34:52.841Z,6.20
2019-04-16T13:37:23.552Z,23.83
2019-04-16T13:40:05.800Z,11.70
2019-04-16T13:42:36.705Z,11.33
2019-04-16T13:45:27.803Z,7.17
2019-04-16T13:48:14.851Z,7.80
2019-04-16T13:50:40.485Z,7.93
2019-04-16T13:53:47.383Z,5.93
2019-04-16T13:56:30.040Z,9.90
2019-04-16T13:59:31.744Z,5.67
2019-04-16T14:02:27.200Z,5.40
2019-04-16T14:05:03.055Z,8.33
2019-04-16T14:07:32.203Z,7.57
2019-04-16T14:10:03.183Z,10.10
2019-04-16T14:12:42.073Z,9.07
2019-04-16T14:15:08.091Z,14.23
2019-04-16T14:17:51.769Z,8.87
2019-04-16T14:20:13.464Z,7.57
2019-04-16T14:22:44.647Z,11.20
2019-04-16T14:25:15.849Z,9.73
2019-04-16T14:27:46.785Z,8.07
2019-04-16T14:30:20.532Z,10.67
2019-04-16T14:32:51.206Z,11.20
2019-04-16T14:35:32.927Z,7.37
2019-04-16T14:37:57.829Z,10.27
2019-04-16T14:40:29.059Z,8.73
2019-04-16T14:42:59.937Z,11.90
2019-04-16T14:45:59.194Z,10.87
2019-04-16T14:48:27.891Z,9.73
2019-04-16T14:50:58.774Z,9.97
2019-04-16T14:53:44.313Z,14.50
2019-04-16T14:56:40.019Z,8.40
2019-04-16T14:59:38.628Z,13.30
2019-04-16T15:02:30.734Z,5.87
2019-04-16T15:05:15.514Z,5.53
2019-04-16T15:08:10.989Z,4.63
2019-04-16T15:11:07.956Z,6.40
2019-04-16T15:13:58.663Z,14.37
2019-04-16T15:16:55.594Z,9.47
2019-04-16T15:19:39.002Z,9.93
2019-04-16T15:22:27.620Z,5.57
2019-04-16T15:25:32.808Z,4.40
2019-04-16T15:28:12.565Z,9.30
2019-04-16T15:31:08.047Z,7.80
2019-04-16T15:34:00.715Z,8.70
2019-04-16T15:36:35.666Z,8.80
2019-04-16T15:39:14.348Z,9.27
2019-04-16T15:42:04.189Z,4.43
2019-04-16T15:44:41.869Z,6.10
2019-04-16T15:47:42.955Z,15.63
2019-04-16T15:50:29.447Z,9.97
2019-04-16T15:53:22.805Z,11.63
2019-04-16T15:56:02.691Z,6.90
2019-04-16T15:58:46.304Z,5.43
2019-04-16T16:01:32.011Z,9.40
2019-04-16T16:04:11.818Z,7.83
2019-04-16T16:06:48.764Z,9.07
2019-04-16T16:09:23.552Z,9.93
2019-04-16T16:12:01.282Z,8.43
2019-04-16T16:14:34.588Z,7.47
2019-04-16T16:17:04.564Z,6.70
2019-04-16T16:19:35.474Z,6.07
2019-04-16T16:22:11.090Z,7.83
2019-04-16T16:24:42.060Z,9.67
2019-04-16T16:27:11.137Z,12.00
2019-04-16T16:29:42.082Z,10.57
2019-04-16T16:32:12.722Z,8.37
2019-04-16T16:34:44.728Z,6.23
2019-04-16T16:37:15.649Z,5.83
2019-04-16T16:39:46.690Z,4.73
2019-04-16T16:42:18.381Z,9.37
2019-04-16T16:44:49.141Z,5.13
2019-04-16T16:47:44.999Z,7.73
2019-04-16T16:50:17.465Z,5.23
2019-04-16T16:53:06.998Z,9.53
2019-04-16T16:55:47.903Z,7.00
2019-04-16T16:58:46.496Z,7.10
2019-04-16T17:01:42.662Z,7.03
2019-04-16T17:04:16.480Z,6.27
2019-04-16T17:06:47.157Z,5.47
2019-04-16T17:09:31.209Z,7.53
2019-04-16T17:12:02.241Z,9.57
2019-04-16T17:14:36.413Z,5.47
2019-04-16T17:17:14.318Z,8.60
2019-04-16T17:19:37.837Z,4.20
2019-04-16T17:22:08.505Z,5.27
2019-04-16T17:24:39.129Z,8.07
2019-04-16T17:27:10.065Z,5.60
2019-04-16T17:29:40.716Z,4.07
2019-04-16T17:32:12.361Z,6.27
2019-04-16T17:34:43.364Z,9.73
2019-04-16T17:37:14.665Z,8.87
2019-04-16T17:39:52.863Z,12.10
2019-04-16T17:42:36.984Z,4.90
2019-04-16T17:45:34.028Z,6.53
2019-04-16T17:48:14.742Z,11.70
2019-04-16T17:51:07.453Z,12.53
2019-04-16T17:53:50.516Z,8.80
2019-04-16T17:56:38.849Z,6.50
2019-04-16T17:59:29.062Z,7.73
2019-04-16T18:02:18.136Z,6.87
2019-04-16T18:05:07.653Z,10.13
2019-04-16T18:07:59.626Z,7.67
2019-04-16T18:10:48.973Z,9.20
2019-04-16T18:13:42.949Z,6.63
2019-04-16T18:16:50.068Z,6.67
2019-04-16T18:19:46.200Z,7.23
2019-04-16T18:22:38.093Z,6.23
2019-04-16T18:25:36.709Z,32.97
2019-04-16T18:28:12.167Z,25.97
2019-04-16T18:30:53.967Z,29.77
2019-04-16T18:33:46.911Z,16.97
2019-04-16T18:36:48.781Z,17.63
2019-04-16T18:39:37.209Z,12.43
2019-04-16T18:42:19.163Z,15.93
2019-04-16T18:45:11.933Z,14.67
2019-04-16T18:48:04.551Z,16.03
2019-04-16T18:50:31.156Z,18.20
2019-04-16T18:53:03.168Z,31.13
2019-04-16T18:55:34.266Z,14.10
2019-04-16T18:58:05.631Z,13.93
2019-04-16T19:00:42.434Z,15.43
2019-04-16T19:03:14.970Z,16.13
2019-04-16T19:05:46.061Z,15.10
2019-04-16T19:08:17.012Z,16.40
2019-04-16T19:10:48.901Z,16.50
2019-04-16T19:13:20.306Z,15.90
2019-04-16T19:15:51.199Z,17.87
2019-04-16T19:18:22.100Z,19.23
2019-04-16T19:20:53.470Z,16.53
2019-04-16T19:23:24.486Z,15.60
2019-04-16T19:25:56.731Z,12.87
2019-04-16T19:28:29.013Z,17.67
2019-04-16T19:30:59.996Z,15.07
2019-04-16T19:33:37.794Z,11.40
2019-04-16T19:36:04.853Z,7.97
2019-04-16T19:38:39.343Z,11.90
2019-04-16T19:41:09.334Z,12.10
2019-04-16T19:43:41.049Z,9.00
2019-04-16T19:46:15.541Z,7.17
2019-04-16T19:48:45.664Z,6.80
2019-04-16T19:51:19.557Z,9.33
2019-04-16T19:53:49.566Z,10.57
2019-04-16T19:56:20.805Z,7.60
2019-04-16T19:58:52.439Z,8.03
2019-04-16T20:01:24.975Z,9.53
2019-04-16T20:03:55.827Z,7.73
2019-04-16T20:06:27.047Z,13.23
2019-04-16T20:08:58.143Z,13.10
2019-04-16T20:11:29.032Z,12.73
2019-04-16T20:14:02.713Z,5.13
2019-04-16T20:16:33.751Z,6.87
2019-04-16T20:19:04.949Z,6.50
2019-04-16T20:21:37.863Z,11.00
2019-04-16T20:24:08.723Z,8.67
2019-04-16T20:26:39.519Z,10.07
2019-04-16T20:29:10.583Z,8.33
2019-04-16T20:31:41.769Z,10.00
2019-04-16T20:34:13.270Z,8.30
2019-04-16T20:36:44.162Z,11.53
2019-04-16T20:39:14.826Z,14.10
2019-04-16T20:41:52.790Z,10.50
2019-04-16T20:44:20.203Z,12.67
2019-04-16T20:46:51.606Z,9.43
2019-04-16T20:49:22.588Z,7.10
2019-04-16T20:51:56.601Z,12.07
2019-04-16T20:54:27.477Z,9.73
2019-04-16T20:56:58.121Z,10.50
2019-04-16T20:59:29.172Z,10.33
2019-04-16T21:02:00.395Z,8.23
2019-04-16T21:04:32.029Z,8.37
2019-04-16T21:07:02.904Z,10.30
2019-04-16T21:09:33.653Z,6.70
2019-04-16T21:12:04.452Z,8.03
2019-04-16T21:14:36.199Z,8.93
2019-04-16T21:17:07.747Z,8.23
2019-04-16T21:19:46.501Z,8.43
2019-04-16T21:22:18.661Z,11.17
2019-04-16T21:24:49.539Z,7.80
2019-04-16T21:27:20.459Z,9.80
2019-04-16T21:29:51.221Z,12.63
2019-04-16T21:32:39.766Z,8.17
2019-04-16T21:35:16.357Z,6.80
2019-04-16T21:37:52.932Z,9.00
2019-04-16T21:40:24.116Z,10.10
2019-04-16T21:42:55.228Z,7.17
2019-04-16T21:45:26.255Z,11.77
2019-04-16T21:47:57.227Z,7.53
2019-04-16T21:50:28.410Z,9.03
2019-04-16T21:52:59.329Z,8.77
2019-04-16T21:55:32.809Z,11.40
2019-04-16T21:58:03.504Z,9.63
2019-04-16T22:01:02.366Z,10.10
2019-04-16T22:03:30.204Z,8.97
2019-04-16T22:06:01.132Z,11.67
2019-04-16T22:08:32.065Z,9.73
2019-04-16T22:11:03.054Z,9.93
2019-04-16T22:13:33.879Z,9.17
2019-04-16T22:16:04.762Z,11.60
2019-04-16T22:18:37.672Z,14.20
2019-04-16T22:21:10.964Z,11.83
2019-04-16T22:23:40.542Z,11.00
2019-04-16T22:26:11.396Z,11.70
2019-04-16T22:28:44.398Z,15.10
2019-04-16T22:31:14.839Z,14.53
2019-04-16T22:33:45.641Z,14.30
2019-04-16T22:36:16.197Z,12.20
2019-04-16T22:38:50.101Z,14.70
2019-04-16T22:41:34.783Z,13.57
2019-04-16T22:44:39.777Z,11.83
2019-04-16T22:47:13.655Z,15.60
2019-04-16T22:49:44.612Z,12.73
2019-04-16T22:52:15.259Z,15.77
2019-04-16T22:54:46.834Z,15.13
2019-04-16T22:57:19.598Z,12.43
2019-04-16T22:59:50.311Z,13.70
2019-04-16T23:02:27.139Z,14.30
2019-04-16T23:04:59.481Z,15.37
2019-04-16T23:07:31.024Z,16.97
2019-04-16T23:10:02.018Z,14.10
2019-04-16T23:12:33.895Z,15.57
2019-04-16T23:15:05.436Z,18.43
2019-04-16T23:17:36.570Z,15.67
2019-04-16T23:20:07.563Z,17.97
2019-04-16T23:22:38.477Z,18.23
2019-04-16T23:25:09.157Z,16.63
2019-04-16T23:27:39.762Z,18.03
2019-04-16T23:30:10.864Z,19.73
2019-04-16T23:32:41.417Z,18.60
2019-04-16T23:35:12.058Z,18.03
2019-04-16T23:37:42.876Z,19.53
2019-04-16T23:40:13.390Z,16.60
2019-04-16T23:42:57.990Z,17.57
2019-04-16T23:46:01.360Z,15.07
2019-04-16T23:48:50.979Z,22.37
2019-04-16T23:51:29.907Z,17.77
2019-04-16T23:54:07.966Z,18.57
2019-04-16T23:56:52.952Z,20.10
2019-04-16T23:59:43.234Z,20.00
